Time;durP1;ratioP1;P1;durP2;ratioP2;P2;SDS_P1;SDS_P2;PMS_P1;PMS_P2;Temp;Humidity;BMP_temperature;BMP_pressure;BME280_temperature;BME280_humidity;BME280_pressure;Samples;Min_cycle;Max_cycle;Signal;HPM_P1;HPM_P2
2023/01/25 00:01:06;;;;;;;23.22;12.53;;;;;;;-4.07;72.76;102675.20;1839333;77;21168;-59
2023/01/25 00:03:35;;;;;;;46.98;18.27;;;;;;;-4.03;72.91;102678.83;1838366;77;21611;-58
2023/01/25 00:06:04;;;;;;;47.05;17.00;;;;;;;-3.93;73.03;102672.08;1838774;77;21153;-59
2023/01/25 00:08:32;;;;;;;42.98;13.53;;;;;;;-3.82;73.11;102671.72;1839996;77;21153;-56
2023/01/25 00:11:01;;;;;;;36.33;13.83;;;;;;;-3.70;73.02;102671.06;1839451;77;21786;-55
2023/01/25 00:13:29;;;;;;;41.63;15.43;;;;;;;-3.57;72.98;102670.87;1839125;77;21144;-58
2023/01/25 00:16:02;;;;;;;33.15;13.25;;;;;;;-3.44;72.84;102672.77;1839637;77;21205;-59
2023/01/25 00:18:31;;;;;;;35.52;17.05;;;;;;;-3.34;72.65;102669.83;1846372;77;21692;-59
2023/01/25 00:21:02;;;;;;;46.40;17.90;;;;;;;-3.26;72.59;102669.81;1855801;77;21171;-56
2023/01/25 00:23:34;;;;;;;45.85;19.75;;;;;;;-3.22;72.48;102656.26;1855928;76;21686;-58
2023/01/25 00:26:02;;;;;;;30.25;16.32;;;;;;;-3.13;72.39;102654.13;1857056;76;21228;-57
2023/01/25 00:28:31;;;;;;;41.95;16.95;;;;;;;-3.11;72.33;102651.21;1856638;77;21225;-59
2023/01/25 00:31:02;;;;;;;42.55;17.27;;;;;;;-3.06;72.31;102650.53;1855407;77;21170;-58
2023/01/25 00:33:39;;;;;;;51.10;17.62;;;;;;;-3.05;72.32;102646.75;1856045;77;21180;-59
2023/01/25 00:36:39;;;;;;;46.15;18.70;;;;;;;-2.99;72.31;102636.75;1857700;76;21248;-57
2023/01/25 00:39:13;;;;;;;47.35;19.70;;;;;;;-2.91;72.41;102640.97;1853432;77;21642;-59
2023/01/25 00:41:42;;;;;;;58.80;20.85;;;;;;;-2.91;72.15;102641.84;1857038;77;22238;-58
2023/01/25 00:44:11;;;;;;;78.20;22.20;;;;;;;-2.80;72.43;102646.22;1862088;76;21160;-56
2023/01/25 00:46:40;;;;;;;70.35;21.23;;;;;;;-2.75;72.38;102647.32;1855835;77;21221;-57
2023/01/25 00:49:11;;;;;;;60.00;18.80;;;;;;;-2.72;72.49;102640.99;1857153;77;21094;-55
2023/01/25 00:51:40;;;;;;;108.15;20.08;;;;;;;-2.68;72.64;102641.14;1854259;77;21183;-56
2023/01/25 00:54:08;;;;;;;67.65;21.10;;;;;;;-2.67;72.62;102637.35;1857309;76;21166;-58
2023/01/25 00:56:37;;;;;;;175.82;28.55;;;;;;;-2.76;72.82;102635.64;1856852;76;21118;-58
2023/01/25 00:59:06;;;;;;;132.97;26.37;;;;;;;-2.84;73.02;102638.25;1857064;77;21138;-59
2023/01/25 01:01:35;;;;;;;91.65;22.45;;;;;;;-2.87;73.13;102637.72;1854959;77;21060;-57
2023/01/25 01:04:03;;;;;;;46.70;17.12;;;;;;;-2.85;73.12;102645.11;1857344;77;21145;-57
2023/01/25 01:06:33;;;;;;;71.17;21.02;;;;;;;-2.89;73.13;102643.21;1856594;76;21157;-57
2023/01/25 01:09:02;;;;;;;69.90;20.30;;;;;;;-2.88;72.96;102635.94;1857301;76;21055;-59
2023/01/25 01:11:31;;;;;;;66.15;20.05;;;;;;;-2.87;72.73;102642.00;1856921;77;21113;-59
2023/01/25 01:14:00;;;;;;;59.93;18.57;;;;;;;-2.89;72.62;102631.61;1856377;76;21139;-57
2023/01/25 01:16:30;;;;;;;53.40;20.20;;;;;;;-2.93;72.56;102641.31;1857090;77;21080;-55
2023/01/25 01:18:59;;;;;;;82.95;23.92;;;;;;;-3.09;73.10;102618.20;1856123;77;21135;-57
2023/01/25 01:21:27;;;;;;;67.87;23.27;;;;;;;-3.09;73.10;102618.20;1856785;77;21495;-55
2023/01/25 01:23:58;;;;;;;68.75;24.52;;;;;;;-3.06;72.89;102623.48;1856927;76;21150;-58
2023/01/25 01:26:26;;;;;;;75.72;21.48;;;;;;;-3.08;72.99;102625.10;1856456;76;21158;-56
2023/01/25 01:28:55;;;;;;;96.78;26.05;;;;;;;-3.10;73.10;102619.87;1857006;76;21604;-56
2023/01/25 01:31:24;;;;;;;50.08;16.15;;;;;;;-3.14;73.57;102620.13;1855780;77;21123;-57
2023/01/25 01:33:57;;;;;;;72.90;23.57;;;;;;;-3.14;73.57;102620.13;1856090;77;21035;-57
2023/01/25 01:36:28;;;;;;;16.27;9.68;;;;;;;-3.18;73.27;102616.94;1855443;77;21150;-55
2023/01/25 01:38:58;;;;;;;48.95;17.37;;;;;;;-3.18;73.34;102618.22;1856671;77;21150;-56
2023/01/25 01:41:27;;;;;;;52.08;14.35;;;;;;;-3.14;73.21;102616.27;1857527;76;21466;-57
2023/01/25 01:43:56;;;;;;;75.55;22.65;;;;;;;-3.08;73.17;102615.70;1854359;76;21165;-57
2023/01/25 01:46:38;;;;;;;50.65;18.55;;;;;;;-3.06;73.12;102613.17;1857084;76;21160;-55
2023/01/25 01:49:23;;;;;;;66.82;18.48;;;;;;;-3.03;72.98;102618.06;1856553;77;21248;-57
2023/01/25 01:51:59;;;;;;;76.45;22.65;;;;;;;-3.01;72.97;102627.16;1856655;77;21248;-58
2023/01/25 01:54:49;;;;;;;68.78;16.55;;;;;;;-3.11;73.07;102611.27;1855056;77;21174;-60
2023/01/25 01:57:27;;;;;;;59.13;20.88;;;;;;;-3.14;73.26;102607.66;1856593;77;21052;-59
2023/01/25 02:00:01;;;;;;;40.35;14.38;;;;;;;-3.17;73.18;102603.26;1857368;76;21545;-57
2023/01/25 02:02:32;;;;;;;54.58;17.65;;;;;;;-3.11;73.33;102609.98;1854925;76;21164;-57
2023/01/25 02:05:03;;;;;;;57.20;21.37;;;;;;;-3.04;73.12;102612.45;1856034;77;21084;-55
2023/01/25 02:07:38;;;;;;;44.20;18.45;;;;;;;-3.01;73.00;102614.27;1856607;77;21657;-55
2023/01/25 02:10:10;;;;;;;42.85;20.88;;;;;;;-2.97;72.92;102611.02;1856915;77;21138;-54
2023/01/25 02:12:39;;;;;;;70.17;24.85;;;;;;;-2.95;72.79;102610.68;1859006;76;21129;-59
2023/01/25 02:15:09;;;;;;;54.65;19.37;;;;;;;-2.91;72.67;102616.48;1856739;77;21153;-59
2023/01/25 02:17:39;;;;;;;65.85;22.85;;;;;;;-2.90;72.67;102613.07;1854054;77;21107;-63
2023/01/25 02:20:11;;;;;;;62.93;20.68;;;;;;;-2.90;72.60;102614.36;1840653;77;21200;-53
2023/01/25 02:22:42;;;;;;;77.75;25.02;;;;;;;-2.88;72.53;102617.02;1821443;78;22490;-54
2023/01/25 02:25:13;;;;;;;74.30;24.85;;;;;;;-2.88;72.43;102606.29;1823017;78;21240;-52
2023/01/25 02:27:45;;;;;;;84.67;23.47;;;;;;;-2.85;72.47;102609.44;1821214;77;21200;-54
2023/01/25 02:30:13;;;;;;;99.07;27.22;;;;;;;-2.84;72.49;102610.80;1820038;78;21149;-50
2023/01/25 02:32:42;;;;;;;91.37;20.65;;;;;;;-2.83;72.49;102599.66;1822609;78;21176;-56
2023/01/25 02:35:20;;;;;;;53.98;17.30;;;;;;;-2.83;72.50;102593.21;1823728;78;21251;-52
2023/01/25 02:37:50;;;;;;;83.15;24.45;;;;;;;-2.88;72.07;102591.23;1822900;78;21674;-54
2023/01/25 02:40:19;;;;;;;104.23;27.13;;;;;;;-2.93;72.41;102593.63;1822199;78;21207;-56
2023/01/25 02:42:48;;;;;;;93.05;22.73;;;;;;;-3.01;72.68;102597.52;1822281;78;21201;-47
2023/01/25 02:45:20;;;;;;;165.75;28.38;;;;;;;-3.08;72.68;102590.31;1822840;78;21144;-49
2023/01/25 02:47:49;;;;;;;119.90;22.95;;;;;;;-3.18;73.03;102592.87;1822528;77;21226;-56
2023/01/25 02:50:18;;;;;;;150.25;26.00;;;;;;;-3.30;73.26;102586.75;1823193;77;21644;-56
2023/01/25 02:52:47;;;;;;;76.40;17.52;;;;;;;-3.37;73.44;102585.98;1822600;78;21092;-53
2023/01/25 02:55:16;;;;;;;45.23;17.92;;;;;;;-3.42;73.60;102590.02;1822008;77;21242;-55
2023/01/25 02:57:46;;;;;;;59.20;20.57;;;;;;;-3.54;73.64;102583.47;1823342;78;21284;-55
2023/01/25 03:00:16;;;;;;;61.73;21.02;;;;;;;-3.66;73.54;102585.44;1826037;78;21501;-54
2023/01/25 03:02:46;;;;;;;14.83;10.85;;;;;;;-3.77;73.79;102585.32;1829133;78;21491;-56
2023/01/25 03:05:15;;;;;;;41.85;14.98;;;;;;;-3.88;73.61;102592.09;1829296;78;21130;-56
2023/01/25 03:07:44;;;;;;;55.48;16.73;;;;;;;-3.97;73.54;102596.78;1829413;78;21096;-55
2023/01/25 03:10:13;;;;;;;50.50;14.83;;;;;;;-4.11;73.71;102587.09;1829354;78;21087;-52
2023/01/25 03:12:42;;;;;;;84.70;19.80;;;;;;;-4.16;73.79;102596.27;1829333;78;21084;-51
2023/01/25 03:15:11;;;;;;;37.58;13.98;;;;;;;-4.18;73.78;102591.86;1829329;78;21140;-52
2023/01/25 03:17:40;;;;;;;53.87;17.27;;;;;;;-4.32;73.97;102592.42;1828389;78;21984;-51
2023/01/25 03:20:12;;;;;;;60.73;20.85;;;;;;;-4.32;73.97;102592.42;1829202;77;21095;-53
2023/01/25 03:22:45;;;;;;;43.83;17.73;;;;;;;-4.35;74.11;102599.59;1829050;78;21087;-55
2023/01/25 03:25:14;;;;;;;26.15;11.45;;;;;;;-4.43;73.98;102597.00;1798846;77;21557;-53
2023/01/25 03:27:45;;;;;;;49.60;17.52;;;;;;;-4.43;73.91;102592.27;1796998;77;21573;-53
2023/01/25 03:30:14;;;;;;;32.78;14.95;;;;;;;-4.44;73.85;102601.68;1837148;76;21095;-53
2023/01/25 03:32:42;;;;;;;59.53;19.90;;;;;;;-4.55;73.76;102596.38;1785611;80;21027;-55
2023/01/25 03:35:13;;;;;;;60.28;18.20;;;;;;;-4.56;73.82;102599.73;1815166;77;21177;-57
2023/01/25 03:37:41;;;;;;;38.40;13.38;;;;;;;-4.56;73.82;102599.73;1824387;77;21483;-56
2023/01/25 03:40:11;;;;;;;62.40;23.47;;;;;;;-4.66;73.65;102599.67;1847962;77;21172;-57
2023/01/25 03:42:41;;;;;;;25.27;12.35;;;;;;;-4.74;73.74;102600.92;1871201;76;21568;-58
2023/01/25 03:45:13;;;;;;;42.23;15.08;;;;;;;-4.78;73.61;102608.88;1800024;78;21180;-59
2023/01/25 03:47:42;;;;;;;41.20;16.42;;;;;;;-4.79;73.50;102608.41;1808235;78;21074;-58
2023/01/25 03:50:11;;;;;;;33.13;14.80;;;;;;;-4.83;73.56;102605.20;1829388;78;21666;-57
2023/01/25 03:52:44;;;;;;;59.67;21.27;;;;;;;-4.83;73.41;102604.28;1829302;78;21603;-56
2023/01/25 03:55:10;;;;;;;23.15;10.68;;;;;;;-4.85;73.42;102611.91;1829084;78;21137;-56
2023/01/25 03:57:41;;;;;;;52.62;19.67;;;;;;;-4.84;73.38;102614.98;1829120;78;21143;-57
2023/01/25 04:00:11;;;;;;;66.67;23.15;;;;;;;-4.86;73.26;102617.87;1829394;78;21230;-59
2023/01/25 04:02:48;;;;;;;43.70;19.65;;;;;;;-4.89;73.17;102615.12;1829096;77;21139;-58
2023/01/25 04:05:19;;;;;;;56.53;20.25;;;;;;;-4.98;73.24;102616.81;1829265;78;21078;-59
2023/01/25 04:07:48;;;;;;;61.53;19.98;;;;;;;-5.12;73.48;102614.76;1829349;78;21674;-58
2023/01/25 04:10:18;;;;;;;65.15;19.95;;;;;;;-5.11;73.50;102613.97;1829106;78;21088;-58
2023/01/25 04:12:47;;;;;;;55.43;21.35;;;;;;;-5.13;73.66;102607.84;1828483;78;21635;-58
2023/01/25 04:15:17;;;;;;;25.88;10.85;;;;;;;-5.10;73.65;102601.59;1829405;78;21516;-58
2023/01/25 04:17:45;;;;;;;62.73;20.05;;;;;;;-5.09;73.53;102599.52;1829269;78;21081;-59
2023/01/25 04:20:25;;;;;;;39.88;13.98;;;;;;;-5.07;73.49;102601.77;1829338;78;21151;-58
2023/01/25 04:22:57;;;;;;;28.47;13.03;;;;;;;-5.07;73.43;102596.64;1829364;77;21187;-60
2023/01/25 04:25:26;;;;;;;31.33;12.33;;;;;;;-5.05;73.37;102601.86;1849018;77;21558;-59
2023/01/25 04:27:55;;;;;;;49.03;18.82;;;;;;;-5.03;73.33;102598.97;1850505;77;21094;-58
2023/01/25 04:30:24;;;;;;;33.65;14.73;;;;;;;-5.02;73.24;102593.02;1850312;77;21070;-58
2023/01/25 04:32:54;;;;;;;31.35;11.40;;;;;;;-5.03;73.00;102592.55;1850541;77;21458;-58
2023/01/25 04:35:24;;;;;;;56.73;21.73;;;;;;;-5.03;73.00;102592.55;1848866;77;21190;-58
2023/01/25 04:37:58;;;;;;;47.98;20.45;;;;;;;-5.08;73.35;102595.27;1850384;77;21590;-58
2023/01/25 04:40:28;;;;;;;53.15;19.30;;;;;;;-5.16;73.56;102596.13;1849803;77;21567;-58
2023/01/25 04:42:57;;;;;;;49.73;18.60;;;;;;;-5.22;73.64;102590.63;1850274;77;21084;-58
2023/01/25 04:45:26;;;;;;;40.17;15.20;;;;;;;-5.22;73.63;102595.77;1850414;76;21536;-59
2023/01/25 04:48:02;;;;;;;40.10;16.75;;;;;;;-5.22;73.45;102590.63;1820087;79;21074;-56
2023/01/25 04:50:31;;;;;;;35.85;12.05;;;;;;;-5.20;73.36;102598.43;1820138;79;21580;-55
2023/01/25 04:53:00;;;;;;;48.15;19.62;;;;;;;-5.22;73.32;102590.63;1820151;79;21498;-58
2023/01/25 04:55:29;;;;;;;67.80;20.77;;;;;;;-5.24;73.28;102593.52;1823760;77;21098;-59
2023/01/25 04:57:58;;;;;;;31.07;14.47;;;;;;;-5.25;73.26;102591.77;1850511;77;21166;-58
2023/01/25 05:00:28;;;;;;;43.08;14.63;;;;;;;-5.25;73.19;102593.05;1850410;77;21064;-58
2023/01/25 05:02:58;;;;;;;38.70;17.17;;;;;;;-5.26;73.11;102593.84;1850322;77;21144;-60
2023/01/25 05:05:27;;;;;;;31.65;11.68;;;;;;;-5.30;73.08;102591.50;1850482;77;21142;-59
2023/01/25 05:07:56;;;;;;;22.42;11.25;;;;;;;-5.33;73.13;102596.48;1850154;76;21167;-61
2023/01/25 05:10:25;;;;;;;27.00;12.53;;;;;;;-5.31;73.07;102597.45;1850499;77;21036;-60
2023/01/25 05:12:55;;;;;;;64.32;20.40;;;;;;;-5.27;73.04;102594.66;1793924;77;21091;-59
2023/01/25 05:15:24;;;;;;;17.57;10.43;;;;;;;-5.23;73.05;102600.44;1850318;77;21052;-59
2023/01/25 05:17:53;;;;;;;31.12;14.68;;;;;;;-5.15;73.07;102596.59;1850314;77;21163;-60
2023/01/25 05:20:22;;;;;;;43.70;13.60;;;;;;;-5.06;73.12;102597.52;1850371;77;21139;-58
2023/01/25 05:22:50;;;;;;;29.52;13.83;;;;;;;-4.95;73.07;102601.55;1850369;77;21052;-56
2023/01/25 05:28:07;;;;;;;50.65;19.12;;;;;;;-4.67;72.98;102603.94;1829472;78;21492;-56
2023/01/25 05:30:40;;;;;;;46.63;18.77;;;;;;;-4.32;72.72;102604.87;1825611;78;21066;-57
2023/01/25 05:33:15;;;;;;;43.02;17.23;;;;;;;-4.32;72.72;102604.87;1827875;78;21242;-59
2023/01/25 05:35:44;;;;;;;17.95;9.48;;;;;;;-4.12;72.77;102607.59;1829688;77;21238;-59
2023/01/25 05:38:13;;;;;;;59.95;22.75;;;;;;;-3.96;72.74;102607.57;1828714;78;21147;-59
2023/01/25 05:40:43;;;;;;;43.85;17.77;;;;;;;-3.80;72.53;102602.80;1829584;78;21114;-59
2023/01/25 05:43:12;;;;;;;51.70;20.40;;;;;;;-3.38;71.81;102602.23;1829638;78;21090;-56
2023/01/25 05:45:41;;;;;;;55.12;15.98;;;;;;;-3.38;71.81;102599.52;1829435;78;21187;-55
2023/01/25 05:48:11;;;;;;;46.18;14.60;;;;;;;-3.14;71.56;102599.52;1829809;78;21550;-55
2023/01/25 05:50:40;;;;;;;47.35;17.95;;;;;;;-2.78;71.67;102602.05;1829889;77;21057;-56
2023/01/25 05:53:13;;;;;;;47.45;17.52;;;;;;;-2.42;71.46;102601.91;1829260;78;21132;-55
2023/01/25 05:55:41;;;;;;;64.75;21.10;;;;;;;-2.02;71.10;102601.07;1829729;78;21101;-56
2023/01/25 05:58:14;;;;;;;59.58;18.50;;;;;;;-1.59;70.68;102597.67;1826715;78;21080;-56
2023/01/25 06:00:43;;;;;;;46.85;17.92;;;;;;;-1.26;70.25;102600.28;1829702;78;21057;-54
2023/01/25 06:03:14;;;;;;;69.80;19.57;;;;;;;-1.00;69.98;102599.98;1829462;78;21108;-55
2023/01/25 06:05:43;;;;;;;50.92;17.27;;;;;;;-0.60;69.53;102601.50;1830031;78;21069;-55
2023/01/25 06:08:11;;;;;;;44.53;17.95;;;;;;;-0.34;69.10;102600.27;1829270;78;21077;-55
2023/01/25 06:10:46;;;;;;;58.73;22.27;;;;;;;-0.27;68.70;102597.08;1829297;78;21061;-55
2023/01/25 06:13:15;;;;;;;45.48;18.42;;;;;;;-0.22;68.41;102599.42;1829576;78;21795;-55
2023/01/25 06:15:45;;;;;;;58.38;21.82;;;;;;;-0.13;68.11;102598.84;1829699;78;21227;-55
2023/01/25 06:18:15;;;;;;;61.48;21.25;;;;;;;-0.03;67.90;102595.33;1825760;78;21077;-56
2023/01/25 06:21:02;;;;;;;56.53;21.57;;;;;;;-0.03;68.01;102587.56;1728379;81;21078;-56
2023/01/25 06:23:32;;;;;;;66.50;21.97;;;;;;;-0.10;67.30;102593.36;1798125;77;21140;-55
2023/01/25 06:26:04;;;;;;;63.05;23.07;;;;;;;-0.11;67.35;102592.91;1829559;78;21065;-56
2023/01/25 06:28:34;;;;;;;74.90;20.37;;;;;;;-0.14;67.75;102590.20;1827303;78;21188;-55
2023/01/25 06:31:11;;;;;;;70.03;20.62;;;;;;;-0.25;67.97;102594.12;1829529;78;21618;-57
2023/01/25 06:33:41;;;;;;;84.70;26.12;;;;;;;-0.23;67.81;102589.87;1829436;78;21140;-57
2023/01/25 06:36:15;;;;;;;63.95;23.47;;;;;;;-0.01;67.78;102588.91;1829337;78;21579;-56
2023/01/25 06:38:45;;;;;;;74.67;23.05;;;;;;;0.44;67.28;102589.09;1828052;77;21103;-56
2023/01/25 06:41:14;;;;;;;67.00;24.67;;;;;;;1.01;66.29;102587.84;1801608;79;21064;-55
2023/01/25 06:43:42;;;;;;;86.25;27.02;;;;;;;1.48;65.69;102585.77;1799875;79;21039;-56
2023/01/25 06:46:12;;;;;;;80.97;24.72;;;;;;;1.74;65.32;102585.17;1800879;79;21051;-56
2023/01/25 06:48:41;;;;;;;69.37;25.50;;;;;;;1.75;65.36;102588.64;1808339;78;21555;-55
2023/01/25 06:51:12;;;;;;;67.62;23.67;;;;;;;1.66;65.36;102584.50;1829422;78;21601;-52
2023/01/25 06:53:43;;;;;;;47.98;18.55;;;;;;;1.67;65.16;102586.27;1829295;78;21520;-53
2023/01/25 06:56:16;;;;;;;59.40;22.40;;;;;;;2.25;64.66;102583.91;1829123;78;21093;-57
2023/01/25 06:58:45;;;;;;;70.50;23.73;;;;;;;2.55;63.85;102590.69;1829635;78;21133;-56
2023/01/25 07:01:19;;;;;;;74.97;24.67;;;;;;;2.89;63.49;102584.95;1829380;78;21073;-57
2023/01/25 07:03:57;;;;;;;72.47;26.07;;;;;;;3.18;63.17;102587.32;1829686;78;21049;-57
2023/01/25 07:06:28;;;;;;;77.47;24.40;;;;;;;3.53;62.83;102589.34;1829342;78;21548;-56
2023/01/25 07:08:58;;;;;;;64.65;25.35;;;;;;;3.84;62.95;102589.94;1829227;78;21484;-56
2023/01/25 07:11:27;;;;;;;78.33;24.65;;;;;;;4.59;62.63;102586.39;1829204;78;21061;-57
2023/01/25 07:13:55;;;;;;;78.02;25.23;;;;;;;5.40;61.72;102582.31;1829302;78;21110;-57
2023/01/25 07:16:24;;;;;;;72.87;23.40;;;;;;;5.64;61.16;102587.78;1830058;77;21065;-57
2023/01/25 07:18:53;;;;;;;47.83;18.52;;;;;;;5.87;60.59;102591.95;1829418;78;21038;-56
2023/01/25 07:21:23;;;;;;;65.30;25.75;;;;;;;6.33;59.63;102588.49;1828453;78;21541;-58
2023/01/25 07:23:52;;;;;;;72.15;28.02;;;;;;;6.87;58.77;102592.35;1829503;78;21131;-57
2023/01/25 07:26:24;;;;;;;71.30;24.47;;;;;;;7.47;57.83;102591.75;1829302;78;21175;-56
2023/01/25 07:28:57;;;;;;;61.30;23.57;;;;;;;8.08;56.57;102590.59;1829206;78;21079;-56
2023/01/25 07:31:26;;;;;;;69.07;24.02;;;;;;;8.47;55.87;102592.82;1829566;78;21054;-55
2023/01/25 07:33:58;;;;;;;69.20;24.10;;;;;;;8.85;55.10;102587.97;1828743;77;21570;-57
2023/01/25 07:36:27;;;;;;;71.47;25.27;;;;;;;9.20;54.58;102593.97;1829390;78;21053;-56
2023/01/25 07:38:57;;;;;;;66.40;25.60;;;;;;;9.61;53.83;102593.80;1829725;78;21147;-60
2023/01/25 07:41:26;;;;;;;68.40;23.90;;;;;;;9.98;53.14;102598.84;1829644;78;21574;-60
2023/01/25 07:43:55;;;;;;;58.92;22.00;;;;;;;10.38;52.53;102603.84;1829402;78;21140;-59
2023/01/25 07:46:32;;;;;;;49.70;18.60;;;;;;;10.69;51.58;102603.54;1827448;78;21041;-60
2023/01/25 07:49:01;;;;;;;40.17;16.05;;;;;;;10.85;51.07;102603.41;1829448;77;21521;-59
2023/01/25 07:51:29;;;;;;;40.58;15.48;;;;;;;11.07;50.70;102598.78;1830150;77;21089;-59
2023/01/25 07:54:00;;;;;;;49.18;16.00;;;;;;;11.37;49.87;102594.42;1829536;77;21059;-59
2023/01/25 07:56:32;;;;;;;39.53;13.70;;;;;;;11.57;49.34;102592.85;1829363;78;21065;-59
2023/01/25 07:59:02;;;;;;;35.78;15.45;;;;;;;11.74;49.02;102591.75;1829106;78;21126;-57
2023/01/25 08:01:33;;;;;;;40.15;15.98;;;;;;;12.02;47.92;102587.41;1829342;78;21175;-57
2023/01/25 08:04:03;;;;;;;42.50;16.80;;;;;;;12.29;47.47;102590.92;1828289;78;21131;-56
2023/01/25 08:06:37;;;;;;;51.08;18.62;;;;;;;12.51;46.95;102590.56;1827821;78;21151;-57
2023/01/25 08:09:16;;;;;;;48.70;19.37;;;;;;;12.82;46.20;102584.70;1829701;77;21062;-58
2023/01/25 08:11:52;;;;;;;53.08;20.08;;;;;;;12.97;46.02;102584.42;1829332;77;21159;-59
2023/01/25 08:14:16;;;;;;;43.80;19.12;;;;;;;12.50;46.38;102587.48;1828084;77;21054;-59
2023/01/25 08:16:48;;;;;;;44.33;16.93;;;;;;;12.50;45.92;102588.80;1829390;78;21070;-58
2023/01/25 08:19:19;;;;;;;39.90;16.97;;;;;;;12.68;45.54;102580.55;1827963;78;21076;-58
2023/01/25 08:21:48;;;;;;;47.17;17.70;;;;;;;13.02;45.00;102582.99;1829979;78;21088;-57
2023/01/25 08:24:16;;;;;;;39.63;16.20;;;;;;;13.38;44.41;102573.46;1829342;78;21485;-54
2023/01/25 08:26:50;;;;;;;42.05;16.37;;;;;;;13.80;43.65;102580.49;1834001;78;21088;-53
2023/01/25 08:29:15;;;;;;;42.25;17.45;;;;;;;13.98;43.10;102577.84;1839481;78;21073;-56
2023/01/25 08:31:44;;;;;;;39.08;17.07;;;;;;;14.11;42.56;102575.34;1840587;77;21132;-56
2023/01/25 08:34:14;;;;;;;39.33;16.73;;;;;;;14.40;42.22;102567.95;1840759;76;21122;-56
2023/01/25 08:36:42;;;;;;;39.75;15.63;;;;;;;14.65;41.70;102562.91;1841280;77;21613;-57
2023/01/25 08:39:16;;;;;;;34.27;15.00;;;;;;;14.93;41.01;102556.84;1841453;77;21055;-57
2023/01/25 08:41:45;;;;;;;34.75;15.10;;;;;;;15.12;40.64;102548.35;1841133;77;21502;-59
2023/01/25 08:44:14;;;;;;;37.60;16.15;;;;;;;15.19;40.08;102544.61;1811178;79;21106;-56
2023/01/25 08:46:46;;;;;;;43.52;16.35;;;;;;;15.14;40.23;102546.09;1809962;79;21160;-54
2023/01/25 08:49:15;;;;;;;42.70;15.78;;;;;;;15.25;39.92;102540.43;1811269;79;21125;-53
2023/01/25 08:51:45;;;;;;;34.95;15.68;;;;;;;15.49;39.59;102536.62;1811341;79;21035;-54
2023/01/25 08:54:15;;;;;;;39.48;16.05;;;;;;;15.80;38.92;102539.20;1834559;77;21554;-59
2023/01/25 08:56:44;;;;;;;43.87;14.10;;;;;;;15.78;38.33;102531.28;1841363;77;21136;-58
2023/01/25 08:59:13;;;;;;;38.67;15.43;;;;;;;15.86;38.14;102528.84;1841245;77;21174;-58
2023/01/25 09:01:42;;;;;;;31.25;13.43;;;;;;;15.85;38.19;102527.12;1841503;77;21210;-57
2023/01/25 09:04:10;;;;;;;27.98;12.65;;;;;;;15.92;37.85;102527.33;1841262;77;21061;-58
2023/01/25 09:06:39;;;;;;;30.77;12.50;;;;;;;15.88;37.67;102520.36;1841194;78;21131;-58
2023/01/25 09:09:09;;;;;;;34.88;13.45;;;;;;;15.99;37.08;102516.45;1839994;77;21090;-58
2023/01/25 09:11:39;;;;;;;28.17;11.22;;;;;;;16.25;36.82;102511.14;1841856;77;21175;-58
2023/01/25 09:14:08;;;;;;;28.62;12.78;;;;;;;16.40;36.64;102511.48;1841326;77;21488;-58
2023/01/25 09:16:40;;;;;;;32.13;12.63;;;;;;;16.49;36.15;102505.41;1841278;77;21536;-58
2023/01/25 09:19:10;;;;;;;30.52;13.55;;;;;;;16.53;36.17;102501.75;1840317;77;21081;-57
2023/01/25 09:21:39;;;;;;;29.95;12.47;;;;;;;16.60;36.11;102500.14;1841229;77;21041;-58
2023/01/25 09:24:08;;;;;;;29.60;10.80;;;;;;;16.86;35.87;102493.02;1841172;77;21511;-58
2023/01/25 09:26:39;;;;;;;28.62;11.03;;;;;;;16.89;35.36;102490.69;1839578;77;21082;-56
2023/01/25 09:29:10;;;;;;;23.80;10.98;;;;;;;17.02;35.20;102496.42;1841414;77;21143;-54
2023/01/25 09:31:42;;;;;;;34.80;11.45;;;;;;;17.24;34.70;102492.46;1841332;77;21061;-58
2023/01/25 09:34:13;;;;;;;30.37;11.40;;;;;;;17.32;34.35;102487.25;1841315;76;21142;-59
2023/01/25 09:36:44;;;;;;;30.82;11.30;;;;;;;17.21;34.11;102482.81;1841619;77;21077;-58
2023/01/25 09:39:13;;;;;;;24.65;10.82;;;;;;;16.99;33.98;102480.12;1840256;78;21115;-57
2023/01/25 09:41:53;;;;;;;31.17;12.23;;;;;;;16.97;33.89;102480.17;1841228;78;21147;-57
2023/01/25 09:44:48;;;;;;;29.35;12.80;;;;;;;17.06;33.76;102479.40;1841188;78;21061;-56
2023/01/25 09:47:27;;;;;;;29.98;12.37;;;;;;;17.07;33.69;102479.82;1841191;77;21127;-57
2023/01/25 09:50:24;;;;;;;24.65;11.12;;;;;;;17.25;33.57;102471.58;1832611;78;21473;-59
2023/01/25 09:53:25;;;;;;;26.42;10.85;;;;;;;17.41;33.36;102477.14;1841314;77;21119;-58
2023/01/25 09:55:59;;;;;;;29.70;11.38;;;;;;;17.63;33.28;102476.70;1840856;77;21684;-58
2023/01/25 09:58:34;;;;;;;31.15;12.50;;;;;;;18.04;32.92;102475.45;1839076;77;21041;-57
2023/01/25 10:01:34;;;;;;;27.80;12.58;;;;;;;18.06;32.84;102470.05;1840457;78;21123;-58
2023/01/25 10:04:05;;;;;;;29.70;12.88;;;;;;;17.95;32.43;102474.51;1840723;77;21535;-58
2023/01/25 10:06:44;;;;;;;32.67;13.38;;;;;;;17.49;32.95;102463.08;1840479;78;21060;-57
2023/01/25 10:09:49;;;;;;;32.28;13.75;;;;;;;17.32;33.14;102465.95;1841156;77;21536;-58
2023/01/25 10:12:28;;;;;;;25.60;12.63;;;;;;;17.31;33.08;102462.88;1841263;77;21524;-58
2023/01/25 10:14:57;;;;;;;33.48;12.45;;;;;;;17.52;32.71;102458.94;1839929;78;21061;-55
2023/01/25 10:17:37;;;;;;;23.47;10.08;;;;;;;17.57;32.68;102460.95;1841156;77;21049;-60
2023/01/25 10:20:30;;;;;;;39.27;13.60;;;;;;;17.70;32.66;102455.50;1811122;79;21027;-59
2023/01/25 10:23:23;;;;;;;29.95;13.32;;;;;;;17.69;32.40;102447.61;1811101;79;21047;-59
2023/01/25 10:25:54;;;;;;;22.98;10.85;;;;;;;17.57;32.39;102442.30;1812604;77;21137;-59
2023/01/25 10:28:26;;;;;;;32.55;11.85;;;;;;;17.69;32.40;102438.28;1812929;77;21640;-59
2023/01/25 10:31:06;;;;;;;26.90;11.25;;;;;;;17.51;32.32;102435.44;1785113;79;21076;-60
2023/01/25 10:33:38;;;;;;;30.05;12.53;;;;;;;17.52;32.42;102443.84;1785800;80;21115;-60
2023/01/25 10:36:08;;;;;;;25.72;11.78;;;;;;;17.57;32.56;102436.98;1785760;80;21561;-58
2023/01/25 10:38:44;;;;;;;32.93;12.25;;;;;;;17.72;32.29;102439.02;1784265;79;21082;-58
2023/01/25 10:41:41;;;;;;;28.35;11.30;;;;;;;17.71;32.29;102431.95;1785692;80;21564;-57
2023/01/25 10:44:22;;;;;;;27.73;10.35;;;;;;;17.43;32.43;102432.68;1784948;78;21539;-55
2023/01/25 10:46:57;;;;;;;26.95;11.50;;;;;;;17.14;32.73;102434.73;1785467;80;21500;-54
2023/01/25 10:49:29;;;;;;;27.73;10.63;;;;;;;17.14;32.79;102425.42;1785423;79;21321;-56
2023/01/25 10:52:01;;;;;;;24.52;11.78;;;;;;;17.30;32.67;102431.87;1766498;79;21077;-55
2023/01/25 10:54:34;;;;;;;25.48;10.78;;;;;;;17.35;32.59;102424.56;1774763;80;21095;-56
2023/01/25 10:57:04;;;;;;;26.48;10.63;;;;;;;17.36;32.83;102425.42;1785688;80;21157;-54
2023/01/25 10:59:36;;;;;;;26.07;10.58;;;;;;;17.45;32.71;102427.71;1785673;80;21137;-57
2023/01/25 11:02:36;;;;;;;27.13;10.88;;;;;;;17.34;32.69;102425.95;1785694;80;21608;-58
2023/01/25 11:05:25;;;;;;;32.48;12.90;;;;;;;17.21;32.89;102428.25;1764403;79;21568;-59
2023/01/25 11:07:55;;;;;;;29.05;12.43;;;;;;;17.04;32.84;102421.38;1760590;80;21117;-55
2023/01/25 11:10:32;;;;;;;27.67;10.68;;;;;;;16.73;33.07;102416.77;1756883;82;21069;-56
2023/01/25 11:13:31;;;;;;;31.87;12.03;;;;;;;16.73;33.18;102415.44;1757004;80;21449;-54
2023/01/25 11:16:22;;;;;;;31.20;11.35;;;;;;;16.44;33.26;102411.22;1757037;82;21114;-56
2023/01/25 11:19:01;;;;;;;32.13;12.03;;;;;;;16.13;33.49;102408.81;1756902;82;21062;-56
2023/01/25 11:21:31;;;;;;;25.90;11.25;;;;;;;16.09;33.57;102413.36;1755263;82;21090;-56
2023/01/25 11:24:16;;;;;;;25.92;10.05;;;;;;;15.73;34.02;102411.05;1756887;80;21066;-55
2023/01/25 11:26:42;;;;;;;25.92;10.80;;;;;;;15.04;34.76;102412.82;1755887;80;21086;-60
2023/01/25 11:29:23;;;;;;;27.45;10.70;;;;;;;15.03;34.62;102411.10;1796690;77;21499;-56
2023/01/25 11:32:30;;;;;;;28.30;10.45;;;;;;;15.13;34.27;102413.00;1834674;78;21765;-61
2023/01/25 11:35:43;;;;;;;23.87;9.38;;;;;;;15.02;34.16;102409.81;1822677;77;21202;-58